createdAt,value
2023-03-22T00:00:19.789Z,1005.90
2023-03-22T00:01:19.690Z,1005.88
2023-03-22T00:02:19.695Z,1005.89
2023-03-22T00:03:19.680Z,1005.85
2023-03-22T00:04:19.653Z,1005.91
2023-03-22T00:05:19.626Z,1005.87
2023-03-22T00:06:19.626Z,1005.87
2023-03-22T00:07:19.604Z,1005.82
2023-03-22T00:08:19.602Z,1005.80
2023-03-22T00:09:19.576Z,1005.80
2023-03-22T00:10:19.577Z,1005.73
2023-03-22T00:11:19.576Z,1005.75
2023-03-22T00:12:19.582Z,1005.73
2023-03-22T00:13:19.544Z,1005.71
2023-03-22T00:14:19.536Z,1005.76
2023-03-22T00:15:19.528Z,1005.73
2023-03-22T00:16:19.582Z,1005.76
2023-03-22T00:17:19.506Z,1005.74
2023-03-22T00:18:19.491Z,1005.76
2023-03-22T00:19:19.473Z,1005.71
2023-03-22T00:20:20.784Z,1005.71
2023-03-22T00:21:19.456Z,1005.72
2023-03-22T00:22:19.449Z,1005.70
2023-03-22T00:23:19.430Z,1005.72
2023-03-22T00:24:19.416Z,1005.70
2023-03-22T00:25:19.440Z,1005.69
2023-03-22T00:26:19.404Z,1005.66
2023-03-22T00:27:19.376Z,1005.66
2023-03-22T00:28:19.397Z,1005.60
2023-03-22T00:29:19.370Z,1005.58
2023-03-22T00:30:19.376Z,1005.62
2023-03-22T00:31:19.352Z,1005.58
2023-03-22T00:32:19.344Z,1005.53
2023-03-22T00:33:19.432Z,1005.54
2023-03-22T00:34:19.323Z,1005.53
2023-03-22T00:35:19.331Z,1005.56
2023-03-22T00:36:19.308Z,1005.51
2023-03-22T00:37:19.279Z,1005.50
2023-03-22T00:38:20.634Z,1005.52
2023-03-22T00:39:19.253Z,1005.49
2023-03-22T00:40:19.265Z,1005.43
2023-03-22T00:41:19.256Z,1005.45
2023-03-22T00:42:19.236Z,1005.42
2023-03-22T00:43:19.219Z,1005.44
2023-03-22T00:44:19.202Z,1005.37
2023-03-22T00:45:19.193Z,1005.39
2023-03-22T00:46:19.230Z,1005.37
2023-03-22T00:47:19.173Z,1005.39
2023-03-22T00:48:19.166Z,1005.33
2023-03-22T00:49:19.158Z,1005.32
2023-03-22T00:50:19.135Z,1005.38
2023-03-22T00:51:19.144Z,1005.35
2023-03-22T00:52:19.116Z,1005.32
2023-03-22T00:53:19.132Z,1005.32
2023-03-22T00:54:19.105Z,1005.31
2023-03-22T00:55:19.106Z,1005.29
2023-03-22T00:56:19.102Z,1005.33
2023-03-22T00:57:19.083Z,1005.30
2023-03-22T00:58:19.056Z,1005.28
2023-03-22T00:59:19.050Z,1005.23
2023-03-22T01:00:19.059Z,1005.22
2023-03-22T01:01:19.105Z,1005.22
2023-03-22T01:02:19.005Z,1005.17
2023-03-22T01:03:19.034Z,1005.21
2023-03-22T01:04:18.975Z,1005.19
2023-03-22T01:05:18.978Z,1005.17
2023-03-22T01:06:18.976Z,1005.19
2023-03-22T01:07:18.954Z,1005.17
2023-03-22T01:08:19.006Z,1005.16
2023-03-22T01:09:18.924Z,1005.13
2023-03-22T01:10:18.929Z,1005.12
2023-03-22T01:11:18.925Z,1005.11
2023-03-22T01:12:18.895Z,1005.08
2023-03-22T01:13:18.902Z,1005.05
2023-03-22T01:14:18.879Z,1005.00
2023-03-22T01:15:18.866Z,1005.00
2023-03-22T01:16:18.905Z,1004.98
2023-03-22T01:17:18.847Z,1004.97
2023-03-22T01:18:18.825Z,1005.00
2023-03-22T01:19:18.820Z,1004.96
2023-03-22T01:20:18.819Z,1005.01
2023-03-22T01:21:18.810Z,1004.95
2023-03-22T01:22:18.802Z,1004.95
2023-03-22T01:23:18.774Z,1004.95
2023-03-22T01:24:18.756Z,1004.98
2023-03-22T01:25:18.755Z,1004.98
2023-03-22T01:26:18.787Z,1004.95
2023-03-22T01:27:18.734Z,1005.01
2023-03-22T01:28:18.715Z,1004.97
2023-03-22T01:29:18.706Z,1004.96
2023-03-22T01:30:18.695Z,1004.97
2023-03-22T01:31:18.735Z,1004.97
2023-03-22T01:32:18.677Z,1004.98
2023-03-22T01:33:18.666Z,1004.98
2023-03-22T01:34:18.684Z,1004.97
2023-03-22T01:35:18.662Z,1004.91
2023-03-22T01:36:18.654Z,1004.91
2023-03-22T01:37:18.627Z,1004.92
2023-03-22T01:38:18.637Z,1004.88
2023-03-22T01:39:18.610Z,1004.90
2023-03-22T01:40:18.603Z,1004.86
2023-03-22T01:41:18.602Z,1004.89
2023-03-22T01:42:18.580Z,1004.97
2023-03-22T01:43:18.572Z,1004.95
2023-03-22T01:44:18.559Z,1004.89
2023-03-22T01:45:18.541Z,1004.95
2023-03-22T01:46:18.595Z,1004.91
2023-03-22T01:47:18.633Z,1004.91
2023-03-22T01:48:18.542Z,1004.92
2023-03-22T01:49:18.529Z,1004.87
2023-03-22T01:50:18.483Z,1004.87
2023-03-22T01:51:18.488Z,1004.85
2023-03-22T01:52:18.569Z,1004.86
2023-03-22T01:53:18.454Z,1004.80
2023-03-22T01:54:18.450Z,1004.79
2023-03-22T01:55:18.628Z,1004.76
2023-03-22T01:56:18.553Z,1004.80
2023-03-22T01:57:18.527Z,1004.72
2023-03-22T01:58:18.419Z,1004.76
2023-03-22T01:59:18.410Z,1004.71
2023-03-22T02:00:18.374Z,1004.75
2023-03-22T02:01:18.471Z,1004.74
2023-03-22T02:02:18.394Z,1004.72
2023-03-22T02:03:18.354Z,1004.71
2023-03-22T02:04:18.366Z,1004.68
2023-03-22T02:05:18.409Z,1004.63
2023-03-22T02:06:18.343Z,1004.66
2023-03-22T02:07:18.321Z,1004.63
2023-03-22T02:08:18.359Z,1004.66
2023-03-22T02:09:18.325Z,1004.67
2023-03-22T02:10:18.312Z,1004.66
2023-03-22T02:11:18.397Z,1004.69
2023-03-22T02:12:18.317Z,1004.69
2023-03-22T02:13:18.426Z,1004.62
2023-03-22T02:14:18.234Z,1004.59
2023-03-22T02:15:18.210Z,1004.61
2023-03-22T02:16:18.324Z,1004.58
2023-03-22T02:17:18.363Z,1004.61
2023-03-22T02:18:18.198Z,1004.53
2023-03-22T02:19:18.209Z,1004.52
2023-03-22T02:20:18.170Z,1004.49
2023-03-22T02:21:18.157Z,1004.52
2023-03-22T02:22:18.199Z,1004.46
2023-03-22T02:23:18.125Z,1004.43
2023-03-22T02:24:18.123Z,1004.43
2023-03-22T02:25:18.469Z,1004.38
2023-03-22T02:26:18.117Z,1004.41
2023-03-22T02:27:18.110Z,1004.39
2023-03-22T02:28:18.081Z,1004.37
2023-03-22T02:29:18.062Z,1004.40
2023-03-22T02:30:18.066Z,1004.39
2023-03-22T02:31:18.316Z,1004.39
2023-03-22T02:32:18.039Z,1004.38
2023-03-22T02:33:18.033Z,1004.35
2023-03-22T02:34:18.033Z,1004.37
2023-03-22T02:35:18.027Z,1004.42
2023-03-22T02:36:18.159Z,1004.35
2023-03-22T02:37:17.984Z,1004.36
2023-03-22T02:38:17.992Z,1004.33
2023-03-22T02:39:17.962Z,1004.34
2023-03-22T02:40:17.995Z,1004.42
2023-03-22T02:41:18.384Z,1004.36
2023-03-22T02:42:17.922Z,1004.35
2023-03-22T02:43:17.923Z,1004.35
2023-03-22T02:44:17.938Z,1004.35
2023-03-22T02:45:18.019Z,1004.37
2023-03-22T02:46:18.087Z,1004.29
2023-03-22T02:47:18.000Z,1004.30
2023-03-22T02:48:17.972Z,1004.30
2023-03-22T02:49:17.872Z,1004.30
2023-03-22T02:50:17.853Z,1004.27
2023-03-22T02:51:17.823Z,1004.30
2023-03-22T02:52:17.816Z,1004.27
2023-03-22T02:53:17.795Z,1004.24
2023-03-22T02:54:17.792Z,1004.22
2023-03-22T02:55:17.785Z,1004.22
2023-03-22T02:56:17.792Z,1004.23
2023-03-22T02:57:17.818Z,1004.23
2023-03-22T02:58:17.767Z,1004.22
2023-03-22T02:59:17.805Z,1004.17
2023-03-22T03:00:17.725Z,1004.14
2023-03-22T03:01:17.768Z,1004.19
2023-03-22T03:02:17.718Z,1004.16
2023-03-22T03:03:17.685Z,1004.13
2023-03-22T03:04:17.680Z,1004.21
2023-03-22T03:05:17.669Z,1004.15
2023-03-22T03:06:17.665Z,1004.19
2023-03-22T03:07:17.659Z,1004.17
2023-03-22T03:08:17.635Z,1004.12
2023-03-22T03:09:17.626Z,1004.12
2023-03-22T03:10:17.644Z,1004.10
2023-03-22T03:11:17.678Z,1004.10
2023-03-22T03:12:17.588Z,1004.04
2023-03-22T03:13:17.596Z,1004.07
2023-03-22T03:14:17.579Z,1004.09
2023-03-22T03:15:17.569Z,1004.05
2023-03-22T03:16:17.693Z,1004.03
2023-03-22T03:17:17.547Z,1004.02
2023-03-22T03:18:17.528Z,1004.00
2023-03-22T03:19:17.546Z,1004.01
2023-03-22T03:20:17.557Z,1003.99
2023-03-22T03:21:17.507Z,1004.03
2023-03-22T03:22:17.551Z,1004.04
2023-03-22T03:23:17.518Z,1004.02
2023-03-22T03:24:17.463Z,1003.95
2023-03-22T03:25:17.457Z,1004.01
2023-03-22T03:26:17.458Z,1004.05
2023-03-22T03:27:17.430Z,1004.05
2023-03-22T03:28:17.429Z,1004.04
2023-03-22T03:29:17.411Z,1003.97
2023-03-22T03:30:17.407Z,1003.99
2023-03-22T03:31:17.458Z,1004.07
2023-03-22T03:32:17.431Z,1004.09
2023-03-22T03:33:17.369Z,1004.02
2023-03-22T03:34:17.360Z,1004.06
2023-03-22T03:35:17.386Z,1004.06
2023-03-22T03:36:17.370Z,1004.06
2023-03-22T03:37:17.338Z,1004.09
2023-03-22T03:38:17.311Z,1004.03
2023-03-22T03:39:17.300Z,1004.09
2023-03-22T03:40:17.322Z,1004.13
2023-03-22T03:41:17.299Z,1004.12
2023-03-22T03:42:17.372Z,1004.07
2023-03-22T03:43:17.263Z,1004.10
2023-03-22T03:44:17.318Z,1004.10
2023-03-22T03:45:17.241Z,1004.08
2023-03-22T03:46:17.314Z,1004.13
2023-03-22T03:47:17.222Z,1004.12
2023-03-22T03:48:17.292Z,1004.08
2023-03-22T03:49:17.204Z,1004.11
2023-03-22T03:50:17.225Z,1004.11
2023-03-22T03:51:17.202Z,1004.10
2023-03-22T03:52:17.156Z,1004.07
2023-03-22T03:53:17.161Z,1004.09
2023-03-22T03:54:17.195Z,1004.12
2023-03-22T03:55:17.185Z,1004.13
2023-03-22T03:56:17.146Z,1004.14
2023-03-22T03:57:17.152Z,1004.16
2023-03-22T03:58:17.118Z,1004.14
2023-03-22T03:59:17.095Z,1004.17
2023-03-22T04:00:17.127Z,1004.19
2023-03-22T04:01:17.089Z,1004.24
2023-03-22T04:02:17.082Z,1004.22
2023-03-22T04:03:17.079Z,1004.19
2023-03-22T04:04:17.092Z,1004.18
2023-03-22T04:05:17.028Z,1004.21
2023-03-22T04:06:17.038Z,1004.19
2023-03-22T04:07:17.009Z,1004.26
2023-03-22T04:08:17.040Z,1004.20
2023-03-22T04:09:17.015Z,1004.20
2023-03-22T04:10:16.978Z,1004.20
2023-03-22T04:11:16.982Z,1004.30
2023-03-22T04:12:16.952Z,1004.28
2023-03-22T04:13:17.081Z,1004.23
2023-03-22T04:14:16.982Z,1004.25
2023-03-22T04:15:16.971Z,1004.24
2023-03-22T04:16:17.021Z,1004.28
2023-03-22T04:17:16.907Z,1004.23
2023-03-22T04:18:16.908Z,1004.23
2023-03-22T04:19:16.883Z,1004.22
2023-03-22T04:20:16.922Z,1004.20
2023-03-22T04:21:16.904Z,1004.17
2023-03-22T04:22:16.871Z,1004.17
2023-03-22T04:23:16.839Z,1004.21
2023-03-22T04:24:16.870Z,1004.23
2023-03-22T04:25:16.863Z,1004.21
2023-03-22T04:26:17.061Z,1004.20
2023-03-22T04:27:16.822Z,1004.21
2023-03-22T04:28:16.784Z,1004.18
2023-03-22T04:29:16.775Z,1004.24
2023-03-22T04:30:16.754Z,1004.20
2023-03-22T04:31:16.790Z,1004.24
2023-03-22T04:32:16.820Z,1004.22
2023-03-22T04:33:16.728Z,1004.23
2023-03-22T04:34:16.725Z,1004.23
2023-03-22T04:35:16.756Z,1004.20
2023-03-22T04:36:16.806Z,1004.18
2023-03-22T04:37:16.712Z,1004.15
2023-03-22T04:38:16.662Z,1004.13
2023-03-22T04:39:16.687Z,1004.18
2023-03-22T04:40:16.692Z,1004.15
2023-03-22T04:41:16.652Z,1004.15
2023-03-22T04:42:16.633Z,1004.17
2023-03-22T04:43:16.621Z,1004.18
2023-03-22T04:44:16.605Z,1004.17
2023-03-22T04:45:16.599Z,1004.16
2023-03-22T04:46:16.637Z,1004.12
2023-03-22T04:47:16.592Z,1004.11
2023-03-22T04:48:16.666Z,1004.09
2023-03-22T04:49:16.561Z,1004.09
2023-03-22T04:50:16.543Z,1004.07
2023-03-22T04:51:16.540Z,1004.10
2023-03-22T04:52:16.606Z,1004.07
2023-03-22T04:53:16.518Z,1004.06
2023-03-22T04:54:16.507Z,1004.03
2023-03-22T04:55:16.485Z,1004.07
2023-03-22T04:56:16.549Z,1004.03
2023-03-22T04:57:16.535Z,1004.00
2023-03-22T04:58:16.509Z,1003.99
2023-03-22T04:59:16.454Z,1003.96
2023-03-22T05:00:16.443Z,1003.93
2023-03-22T05:01:16.518Z,1003.96
2023-03-22T05:02:16.445Z,1003.94
2023-03-22T05:03:16.395Z,1003.87
2023-03-22T05:04:16.383Z,1003.83
2023-03-22T05:05:16.394Z,1003.84
2023-03-22T05:06:16.393Z,1003.79
2023-03-22T05:07:16.375Z,1003.82
2023-03-22T05:08:16.360Z,1003.84
2023-03-22T05:09:16.328Z,1003.88
2023-03-22T05:10:16.339Z,1003.84
2023-03-22T05:11:16.329Z,1003.81
2023-03-22T05:12:16.437Z,1003.81
2023-03-22T05:13:16.288Z,1003.83
2023-03-22T05:14:16.342Z,1003.86
2023-03-22T05:15:16.284Z,1003.84
2023-03-22T05:16:16.305Z,1003.84
2023-03-22T05:17:16.256Z,1003.82
2023-03-22T05:18:16.239Z,1003.83
2023-03-22T05:19:16.238Z,1003.83
2023-03-22T05:20:16.231Z,1003.81
2023-03-22T05:21:16.220Z,1003.85
2023-03-22T05:22:16.236Z,1003.86
2023-03-22T05:23:16.208Z,1003.82
2023-03-22T05:24:16.177Z,1003.80
2023-03-22T05:25:16.167Z,1003.76
2023-03-22T05:26:16.249Z,1003.79
2023-03-22T05:27:16.189Z,1003.76
2023-03-22T05:28:16.366Z,1003.71
2023-03-22T05:29:16.154Z,1003.75
2023-03-22T05:30:16.192Z,1003.75
2023-03-22T05:31:16.150Z,1003.80
2023-03-22T05:32:16.130Z,1003.75
2023-03-22T05:33:16.077Z,1003.72
2023-03-22T05:34:16.066Z,1003.72
2023-03-22T05:35:16.050Z,1003.72
2023-03-22T05:36:16.059Z,1003.71
2023-03-22T05:37:16.059Z,1003.69
2023-03-22T05:38:16.021Z,1003.70
2023-03-22T05:39:16.012Z,1003.68
2023-03-22T05:40:16.009Z,1003.72
2023-03-22T05:41:16.004Z,1003.73
2023-03-22T05:42:16.194Z,1003.71
2023-03-22T05:43:15.987Z,1003.74
2023-03-22T05:44:15.971Z,1003.75
2023-03-22T05:45:15.955Z,1003.75
2023-03-22T05:46:16.007Z,1003.82
2023-03-22T05:47:15.944Z,1003.87
2023-03-22T05:48:15.970Z,1003.87
2023-03-22T05:49:15.907Z,1003.92
2023-03-22T05:50:16.090Z,1003.95
2023-03-22T05:51:15.878Z,1003.92
2023-03-22T05:52:16.297Z,1003.94
2023-03-22T05:53:15.856Z,1003.96
2023-03-22T05:54:15.849Z,1003.96
2023-03-22T05:55:15.843Z,1004.02
2023-03-22T05:56:15.877Z,1003.99
2023-03-22T05:57:15.828Z,1003.96
2023-03-22T05:58:15.991Z,1003.93
2023-03-22T05:59:15.841Z,1003.88
2023-03-22T06:00:15.929Z,1003.90
2023-03-22T06:01:15.782Z,1003.87
2023-03-22T06:02:15.874Z,1003.88
2023-03-22T06:03:16.946Z,1003.85
2023-03-22T06:04:15.753Z,1003.91
2023-03-22T06:05:15.742Z,1003.91
2023-03-22T06:06:15.782Z,1003.93
2023-03-22T06:07:15.769Z,1003.90
2023-03-22T06:08:15.873Z,1003.89
2023-03-22T06:09:17.680Z,1003.89
2023-03-22T06:10:15.737Z,1003.92
2023-03-22T06:11:15.712Z,1003.95
2023-03-22T06:12:15.727Z,1003.88
2023-03-22T06:13:15.699Z,1003.89
2023-03-22T06:14:15.704Z,1003.90
2023-03-22T06:15:15.633Z,1003.91
2023-03-22T06:16:15.763Z,1003.87
2023-03-22T06:17:15.675Z,1003.83
2023-03-22T06:18:15.612Z,1003.80
2023-03-22T06:19:15.606Z,1003.83
2023-03-22T06:20:15.654Z,1003.83
2023-03-22T06:21:15.585Z,1003.85
2023-03-22T06:22:15.661Z,1003.85
2023-03-22T06:23:15.751Z,1003.81
2023-03-22T06:24:15.609Z,1003.78
2023-03-22T06:25:15.541Z,1003.76
2023-03-22T06:26:15.547Z,1003.75
2023-03-22T06:27:15.529Z,1003.74
2023-03-22T06:28:15.516Z,1003.77
2023-03-22T06:29:15.538Z,1003.83
2023-03-22T06:30:15.575Z,1003.83
2023-03-22T06:31:15.532Z,1003.85
2023-03-22T06:32:15.587Z,1003.87
2023-03-22T06:33:15.469Z,1003.84
2023-03-22T06:34:15.414Z,1003.81
2023-03-22T06:35:15.425Z,1003.82
2023-03-22T06:36:15.402Z,1003.87
2023-03-22T06:37:15.408Z,1003.88
2023-03-22T06:38:15.390Z,1003.86
2023-03-22T06:39:15.373Z,1003.85
2023-03-22T06:40:15.379Z,1003.84
2023-03-22T06:41:15.349Z,1003.85
2023-03-22T06:42:15.340Z,1003.87
2023-03-22T06:43:15.321Z,1003.90
2023-03-22T06:44:15.353Z,1003.92
2023-03-22T06:45:15.301Z,1003.94
2023-03-22T06:46:15.338Z,1003.97
2023-03-22T06:47:15.422Z,1003.96
2023-03-22T06:48:15.443Z,1003.92
2023-03-22T06:49:15.274Z,1003.89
2023-03-22T06:50:15.253Z,1003.89
2023-03-22T06:51:15.232Z,1003.87
2023-03-22T06:52:15.241Z,1003.87
2023-03-22T06:53:15.267Z,1003.83
2023-03-22T06:54:15.224Z,1003.87
2023-03-22T06:55:15.221Z,1003.85
2023-03-22T06:56:15.218Z,1003.88
2023-03-22T06:57:15.183Z,1003.89
2023-03-22T06:58:15.199Z,1003.89
2023-03-22T06:59:15.153Z,1003.91
2023-03-22T07:00:15.164Z,1003.85
2023-03-22T07:01:15.712Z,1003.88
2023-03-22T07:02:15.123Z,1003.84
2023-03-22T07:03:15.101Z,1003.85
2023-03-22T07:04:15.097Z,1003.84
2023-03-22T07:05:15.104Z,1003.83
2023-03-22T07:06:15.074Z,1003.82
2023-03-22T07:07:15.078Z,1003.85
2023-03-22T07:08:15.046Z,1003.77
2023-03-22T07:09:15.036Z,1003.84
2023-03-22T07:10:15.084Z,1003.85
2023-03-22T07:11:15.019Z,1003.89
2023-03-22T07:12:15.028Z,1003.84
2023-03-22T07:13:14.998Z,1003.83
2023-03-22T07:14:15.047Z,1003.77
2023-03-22T07:15:14.977Z,1003.78
2023-03-22T07:16:15.121Z,1003.74
2023-03-22T07:17:14.956Z,1003.73
2023-03-22T07:18:15.237Z,1003.69
2023-03-22T07:19:14.936Z,1003.69
2023-03-22T07:20:14.918Z,1003.67
2023-03-22T07:21:14.913Z,1003.68
2023-03-22T07:22:14.898Z,1003.63
2023-03-22T07:23:14.906Z,1003.63
2023-03-22T07:24:14.917Z,1003.62
2023-03-22T07:25:14.868Z,1003.64
2023-03-22T07:26:14.978Z,1003.65
2023-03-22T07:27:14.840Z,1003.62
2023-03-22T07:28:14.970Z,1003.59
2023-03-22T07:29:14.820Z,1003.60
2023-03-22T07:30:14.805Z,1003.63
2023-03-22T07:31:14.805Z,1003.63
2023-03-22T07:32:14.852Z,1003.48
2023-03-22T07:33:14.801Z,1003.50
2023-03-22T07:34:14.794Z,1003.47
2023-03-22T07:35:14.751Z,1003.53
2023-03-22T07:36:14.820Z,1003.47
2023-03-22T07:37:14.758Z,1003.43
2023-03-22T07:38:15.438Z,1003.46
2023-03-22T07:39:14.724Z,1003.44
2023-03-22T07:40:14.705Z,1003.43
2023-03-22T07:41:14.719Z,1003.37
2023-03-22T07:42:14.719Z,1003.35
2023-03-22T07:43:14.679Z,1003.44
2023-03-22T07:44:18.056Z,1003.36
2023-03-22T07:45:14.699Z,1003.30
2023-03-22T07:46:14.667Z,1003.29
2023-03-22T07:47:14.641Z,1003.30
2023-03-22T07:48:14.690Z,1003.24
2023-03-22T07:49:14.622Z,1003.20
2023-03-22T07:50:14.596Z,1003.23
2023-03-22T07:51:14.593Z,1003.17
2023-03-22T07:52:14.565Z,1003.25
2023-03-22T07:53:14.580Z,1003.25
2023-03-22T07:54:27.246Z,1003.21
2023-03-22T07:55:15.556Z,1003.25
2023-03-22T07:56:14.673Z,1003.25
2023-03-22T07:57:14.527Z,1003.19
2023-03-22T07:58:14.656Z,1003.24
2023-03-22T07:59:14.551Z,1003.22
2023-03-22T08:00:14.496Z,1003.20
2023-03-22T08:01:14.495Z,1003.25
2023-03-22T08:02:14.594Z,1003.31
2023-03-22T08:03:14.528Z,1003.28
2023-03-22T08:04:14.460Z,1003.31
2023-03-22T08:05:14.452Z,1003.28
2023-03-22T08:06:14.429Z,1003.30
2023-03-22T08:07:14.421Z,1003.31
2023-03-22T08:08:14.467Z,1003.31
2023-03-22T08:09:14.399Z,1003.31
2023-03-22T08:10:14.383Z,1003.31
2023-03-22T08:11:14.372Z,1003.30
2023-03-22T08:12:14.372Z,1003.28
2023-03-22T08:13:14.372Z,1003.29
2023-03-22T08:14:15.193Z,1003.33
2023-03-22T08:15:14.341Z,1003.30
2023-03-22T08:16:14.381Z,1003.24
2023-03-22T08:17:14.457Z,1003.27
2023-03-22T08:18:14.384Z,1003.23
2023-03-22T08:19:14.288Z,1003.25
2023-03-22T08:20:14.270Z,1003.41
2023-03-22T08:21:14.253Z,1003.27
2023-03-22T08:22:14.263Z,1003.25
2023-03-22T08:23:14.254Z,1003.26
2023-03-22T08:24:15.180Z,1003.23
2023-03-22T08:25:14.223Z,1003.24
2023-03-22T08:26:14.213Z,1003.28
2023-03-22T08:27:14.573Z,1003.28
2023-03-22T08:28:14.237Z,1003.31
2023-03-22T08:29:14.174Z,1003.35
2023-03-22T08:30:14.200Z,1003.36
2023-03-22T08:31:15.348Z,1003.23
2023-03-22T08:32:14.158Z,1003.24
2023-03-22T08:33:14.368Z,1003.27
2023-03-22T08:34:14.129Z,1003.21
2023-03-22T08:35:14.108Z,1003.10
2023-03-22T08:36:14.117Z,1003.12
2023-03-22T08:37:14.111Z,1003.12
2023-03-22T08:38:14.110Z,1003.13
2023-03-22T08:39:14.065Z,1003.15
2023-03-22T08:40:14.068Z,1003.05
2023-03-22T08:41:14.098Z,1003.06
2023-03-22T08:42:14.036Z,1003.12
2023-03-22T08:43:14.217Z,1003.10
2023-03-22T08:44:14.007Z,1003.14
2023-03-22T08:45:14.000Z,1003.22
2023-03-22T08:46:14.132Z,1003.15
2023-03-22T08:47:13.981Z,1003.19
2023-03-22T08:48:14.042Z,1003.25
2023-03-22T08:49:14.012Z,1003.21
2023-03-22T08:50:13.951Z,1003.22
2023-03-22T08:51:14.041Z,1003.25
2023-03-22T08:52:13.910Z,1003.35
2023-03-22T08:53:13.927Z,1003.33
2023-03-22T08:54:13.932Z,1003.32
2023-03-22T08:55:13.901Z,1003.25
2023-03-22T08:56:13.932Z,1003.25
2023-03-22T08:57:13.874Z,1003.20
2023-03-22T08:58:13.902Z,1003.24
2023-03-22T08:59:13.874Z,1003.24
2023-03-22T09:00:14.000Z,1003.21
2023-03-22T09:01:13.945Z,1003.28
2023-03-22T09:02:13.965Z,1003.31
2023-03-22T09:03:13.907Z,1003.22
2023-03-22T09:04:13.955Z,1003.27
2023-03-22T09:05:13.785Z,1003.16
2023-03-22T09:06:13.768Z,1003.21
2023-03-22T09:07:13.765Z,1003.27
2023-03-22T09:08:19.130Z,1003.30
2023-03-22T09:09:14.782Z,1003.29
2023-03-22T09:10:13.789Z,1003.26
2023-03-22T09:11:14.615Z,1003.19
2023-03-22T09:12:13.760Z,1003.19
2023-03-22T09:13:13.714Z,1003.19
2023-03-22T09:14:13.712Z,1003.21
2023-03-22T09:15:13.672Z,1003.23
2023-03-22T09:16:13.795Z,1003.15
2023-03-22T09:17:13.670Z,1003.12
2023-03-22T09:18:13.704Z,1003.07
2023-03-22T09:19:13.630Z,1003.07
2023-03-22T09:20:13.753Z,1003.12
2023-03-22T09:21:13.623Z,1003.12
2023-03-22T09:22:13.689Z,1003.11
2023-03-22T09:23:13.604Z,1003.07
2023-03-22T09:24:13.657Z,1003.05
2023-03-22T09:25:13.616Z,1003.05
2023-03-22T09:26:13.592Z,1003.06
2023-03-22T09:27:13.545Z,1002.98
2023-03-22T09:28:13.563Z,1003.01
2023-03-22T09:29:13.521Z,1003.03
2023-03-22T09:30:13.508Z,1002.99
2023-03-22T09:31:13.539Z,1003.07
2023-03-22T09:32:13.510Z,1003.02
2023-03-22T09:33:13.503Z,1003.02
2023-03-22T09:34:13.461Z,1002.87
2023-03-22T09:35:13.452Z,1003.02
2023-03-22T09:36:13.443Z,1002.96
2023-03-22T09:37:13.437Z,1002.95
2023-03-22T09:38:13.445Z,1002.88
2023-03-22T09:39:13.419Z,1002.92
2023-03-22T09:40:13.455Z,1002.85
2023-03-22T09:41:13.403Z,1002.91
2023-03-22T09:42:13.384Z,1002.88
2023-03-22T09:43:13.377Z,1002.83
2023-03-22T09:44:13.426Z,1002.86
2023-03-22T09:45:13.358Z,1002.83
2023-03-22T09:46:13.489Z,1002.74
2023-03-22T09:47:13.335Z,1002.81
2023-03-22T09:48:13.491Z,1002.79
2023-03-22T09:49:13.322Z,1002.79
2023-03-22T09:50:13.309Z,1002.70
2023-03-22T09:51:13.296Z,1002.78
2023-03-22T09:52:13.423Z,1002.71
2023-03-22T09:53:13.283Z,1002.73
2023-03-22T09:54:13.254Z,1002.67
2023-03-22T09:55:13.302Z,1002.65
2023-03-22T09:56:13.348Z,1002.68
2023-03-22T09:57:13.228Z,1002.71
2023-03-22T09:58:13.288Z,1002.70
2023-03-22T09:59:13.204Z,1002.66
2023-03-22T10:00:13.320Z,1002.59
2023-03-22T10:01:13.277Z,1002.71
2023-03-22T10:02:13.403Z,1002.59
2023-03-22T10:03:13.163Z,1002.63
2023-03-22T10:04:13.355Z,1002.60
2023-03-22T10:05:13.157Z,1002.60
2023-03-22T10:06:13.144Z,1002.63
2023-03-22T10:07:13.241Z,1002.66
2023-03-22T10:08:13.137Z,1002.61
2023-03-22T10:09:13.115Z,1002.58
2023-03-22T10:10:13.144Z,1002.62
2023-03-22T10:11:13.067Z,1002.59
2023-03-22T10:12:13.048Z,1002.61
2023-03-22T10:13:13.103Z,1002.51
2023-03-22T10:14:13.120Z,1002.65
2023-03-22T10:15:13.039Z,1002.80
2023-03-22T10:16:13.095Z,1002.68
2023-03-22T10:17:13.057Z,1002.54
2023-03-22T10:18:13.035Z,1002.63
2023-03-22T10:19:13.062Z,1002.57
2023-03-22T10:20:12.994Z,1002.56
2023-03-22T10:21:13.028Z,1002.53
2023-03-22T10:22:12.988Z,1002.53
2023-03-22T10:23:12.954Z,1002.57
2023-03-22T10:24:12.964Z,1002.49
2023-03-22T10:25:12.937Z,1002.54
2023-03-22T10:26:13.049Z,1002.58
2023-03-22T10:27:13.857Z,1002.51
2023-03-22T10:28:12.996Z,1002.51
2023-03-22T10:29:12.873Z,1002.54
2023-03-22T10:30:12.856Z,1002.41
2023-03-22T10:31:12.897Z,1002.41
2023-03-22T10:32:12.857Z,1002.39
2023-03-22T10:33:12.835Z,1002.43
2023-03-22T10:34:12.876Z,1002.38
2023-03-22T10:35:12.819Z,1002.43
2023-03-22T10:36:12.787Z,1002.44
2023-03-22T10:37:12.787Z,1002.43
2023-03-22T10:38:12.817Z,1002.43
2023-03-22T10:39:14.472Z,1002.40
2023-03-22T10:40:12.779Z,1002.34
2023-03-22T10:41:12.741Z,1002.41
2023-03-22T10:42:12.742Z,1002.39
2023-03-22T10:43:12.740Z,1002.39
2023-03-22T10:44:12.726Z,1002.40
2023-03-22T10:45:12.780Z,1002.41
2023-03-22T10:46:12.692Z,1002.46
2023-03-22T10:47:12.681Z,1002.42
2023-03-22T10:48:12.750Z,1002.40
2023-03-22T10:49:12.667Z,1002.36
2023-03-22T10:50:12.846Z,1002.38
2023-03-22T10:51:12.693Z,1002.44
2023-03-22T10:52:12.658Z,1002.41
2023-03-22T10:53:12.646Z,1002.42
2023-03-22T10:54:12.596Z,1002.50
2023-03-22T10:55:12.599Z,1002.48
2023-03-22T10:56:12.599Z,1002.46
2023-03-22T10:57:12.584Z,1002.50
2023-03-22T10:58:12.637Z,1002.44
2023-03-22T10:59:12.561Z,1002.41
2023-03-22T11:00:12.539Z,1002.47
2023-03-22T11:01:12.609Z,1002.44
2023-03-22T11:02:12.615Z,1002.52
2023-03-22T11:03:12.596Z,1002.51
2023-03-22T11:04:12.492Z,1002.43
2023-03-22T11:05:12.490Z,1002.47
2023-03-22T11:06:12.480Z,1002.49
2023-03-22T11:07:12.465Z,1002.45
2023-03-22T11:08:12.447Z,1002.55
2023-03-22T11:09:12.487Z,1002.54
2023-03-22T11:10:12.521Z,1002.55
2023-03-22T11:11:12.441Z,1002.46
2023-03-22T11:12:12.487Z,1002.49
2023-03-22T11:13:12.420Z,1002.57
2023-03-22T11:14:12.411Z,1002.47
2023-03-22T11:15:12.387Z,1002.51
2023-03-22T11:16:12.441Z,1002.54
2023-03-22T11:17:12.399Z,1002.53
2023-03-22T11:18:12.401Z,1002.53
2023-03-22T11:19:12.378Z,1002.51
2023-03-22T11:20:12.536Z,1002.47
2023-03-22T11:21:12.308Z,1002.48
2023-03-22T11:22:12.306Z,1002.50
2023-03-22T11:23:12.309Z,1002.46
2023-03-22T11:24:12.278Z,1002.49
2023-03-22T11:25:12.283Z,1002.43
2023-03-22T11:26:12.332Z,1002.48
2023-03-22T11:27:12.243Z,1002.50
2023-03-22T11:28:12.256Z,1002.50
2023-03-22T11:29:12.220Z,1002.54
2023-03-22T11:30:12.226Z,1002.59
2023-03-22T11:31:12.207Z,1002.44
2023-03-22T11:32:12.245Z,1002.48
2023-03-22T11:33:12.238Z,1002.38
2023-03-22T11:34:12.183Z,1002.50
2023-03-22T11:35:12.168Z,1002.45
2023-03-22T11:36:12.217Z,1002.41
2023-03-22T11:37:14.420Z,1002.43
2023-03-22T11:38:12.158Z,1002.47
2023-03-22T11:39:12.115Z,1002.46
2023-03-22T11:40:12.213Z,1002.52
2023-03-22T11:41:12.099Z,1002.49
2023-03-22T11:42:12.076Z,1002.47
2023-03-22T11:43:12.096Z,1002.48
2023-03-22T11:44:12.065Z,1002.49
2023-03-22T11:45:12.058Z,1002.53
2023-03-22T11:46:12.120Z,1002.51
2023-03-22T11:47:12.047Z,1002.56
2023-03-22T11:48:12.251Z,1002.45
2023-03-22T11:49:12.063Z,1002.50
2023-03-22T11:50:12.011Z,1002.50
2023-03-22T11:51:12.517Z,1002.52
2023-03-22T11:52:11.977Z,1002.52
2023-03-22T11:53:11.990Z,1002.52
2023-03-22T11:54:12.031Z,1002.52
2023-03-22T11:55:11.951Z,1002.52
2023-03-22T11:56:11.935Z,1002.46
2023-03-22T11:57:11.929Z,1002.45
2023-03-22T11:58:11.917Z,1002.47
2023-03-22T11:59:11.923Z,1002.44
2023-03-22T12:00:11.908Z,1002.43
2023-03-22T12:01:11.877Z,1002.43
2023-03-22T12:02:11.981Z,1002.40
2023-03-22T12:03:11.893Z,1002.41
2023-03-22T12:04:11.956Z,1002.39
2023-03-22T12:05:11.900Z,1002.43